Time;durP1;ratioP1;P1;durP2;ratioP2;P2;SDS_P1;SDS_P2;PMS_P1;PMS_P2;Temp;Humidity;BMP_temperature;BMP_pressure;BME280_temperature;BME280_humidity;BME280_pressure;Samples;Min_cycle;Max_cycle;Signal;HPM_P1;HPM_P2
2024/03/20 00:00:19;;;;;;;8.98;2.45;;;;;;;8.62;56.82;101879.66;5023588;28;20028;-73
2024/03/20 00:02:46;;;;;;;7.03;2.33;;;;;;;8.71;56.26;101885.59;5034681;28;20135;-74
2024/03/20 00:05:13;;;;;;;4.07;1.92;;;;;;;8.69;56.41;101886.50;5008916;28;20109;-73
2024/03/20 00:07:39;;;;;;;6.47;2.35;;;;;;;8.67;56.47;101888.25;5033289;28;20041;-71
2024/03/20 00:10:07;;;;;;;4.60;2.70;;;;;;;8.61;56.68;101890.97;5032603;28;20041;-70
2024/03/20 00:12:33;;;;;;;4.43;2.60;;;;;;;8.65;57.00;101887.41;5020606;28;20816;-71
2024/03/20 00:14:59;;;;;;;5.43;3.20;;;;;;;8.65;56.98;101883.09;5036977;28;20043;-72
2024/03/20 00:17:24;;;;;;;8.00;2.80;;;;;;;8.59;57.05;101884.94;5024503;28;20048;-70
2024/03/20 00:19:50;;;;;;;7.68;3.05;;;;;;;8.56;57.35;101884.09;5032422;28;20029;-70
2024/03/20 00:22:17;;;;;;;8.10;3.40;;;;;;;8.49;57.53;101882.44;5029547;28;20151;-71
2024/03/20 00:24:42;;;;;;;5.35;2.70;;;;;;;8.54;57.77;101882.41;5033618;28;20033;-70
2024/03/20 00:27:08;;;;;;;8.50;2.90;;;;;;;8.56;57.50;101881.50;5027491;28;20028;-71
2024/03/20 00:29:33;;;;;;;5.53;2.97;;;;;;;8.52;57.57;101882.41;5033894;28;20719;-70
2024/03/20 00:31:58;;;;;;;6.13;2.40;;;;;;;8.50;57.81;101884.19;5029276;28;20084;-70
2024/03/20 00:34:26;;;;;;;9.05;3.10;;;;;;;8.57;57.28;101877.13;5056951;28;20733;-70
2024/03/20 00:36:51;;;;;;;4.05;2.10;;;;;;;8.53;57.44;101875.44;5029521;28;20471;-71
2024/03/20 00:39:18;;;;;;;15.80;6.68;;;;;;;8.59;57.25;101883.19;5026959;28;20032;-71
2024/03/20 00:41:44;;;;;;;23.75;11.05;;;;;;;8.61;57.30;101890.97;5030295;28;20036;-70
2024/03/20 00:44:09;;;;;;;18.35;7.60;;;;;;;8.49;57.46;101876.38;5028957;28;20036;-71
2024/03/20 00:46:35;;;;;;;9.63;3.88;;;;;;;8.44;57.65;101878.19;5025193;28;20647;-74
2024/03/20 00:49:00;;;;;;;13.80;5.07;;;;;;;8.42;57.97;101873.00;5032466;28;20056;-72
2024/03/20 00:51:26;;;;;;;11.88;4.28;;;;;;;8.49;57.97;101874.63;5023840;28;20033;-71
2024/03/20 00:53:51;;;;;;;17.90;5.45;;;;;;;8.46;58.13;101874.69;5033309;28;20047;-71
2024/03/20 00:56:17;;;;;;;6.53;4.95;;;;;;;8.45;58.20;101872.97;5024597;28;20160;-72
2024/03/20 00:58:43;;;;;;;9.70;4.35;;;;;;;8.43;58.29;101868.69;5027000;28;20036;-72
2024/03/20 01:01:08;;;;;;;8.27;3.58;;;;;;;8.41;58.14;101862.63;5034397;28;20479;-72
2024/03/20 01:03:34;;;;;;;6.85;3.72;;;;;;;8.37;58.59;101861.78;5024589;28;20048;-71
2024/03/20 01:05:59;;;;;;;8.30;3.38;;;;;;;8.34;58.35;101862.72;5031352;28;20128;-71
2024/03/20 01:08:25;;;;;;;8.95;3.63;;;;;;;8.33;58.61;101862.72;5020274;28;20065;-72
2024/03/20 01:10:50;;;;;;;6.05;3.65;;;;;;;8.36;58.48;101865.31;5031005;28;20119;-71
2024/03/20 01:13:18;;;;;;;14.07;4.53;;;;;;;8.45;58.21;101859.06;5030940;28;20068;-72
2024/03/20 01:15:44;;;;;;;6.13;3.25;;;;;;;8.45;58.08;101859.06;5028946;28;20033;-71
2024/03/20 01:18:09;;;;;;;10.48;3.35;;;;;;;8.50;58.04;101858.13;5031198;28;20055;-71
2024/03/20 01:20:35;;;;;;;4.32;3.10;;;;;;;8.44;58.23;101854.75;5028866;28;20040;-72
2024/03/20 01:23:00;;;;;;;7.47;3.22;;;;;;;8.45;57.67;101848.63;5031918;28;20182;-71
2024/03/20 01:25:26;;;;;;;6.72;2.80;;;;;;;8.53;57.59;101855.47;5007220;28;20493;-71
2024/03/20 01:27:51;;;;;;;7.10;3.25;;;;;;;8.58;57.40;101855.38;5035971;28;20524;-72
2024/03/20 01:30:17;;;;;;;4.43;3.58;;;;;;;8.53;57.28;101850.25;5012428;28;20127;-72
2024/03/20 01:32:42;;;;;;;7.45;3.55;;;;;;;8.51;57.67;101853.75;5050501;28;20134;-71
2024/03/20 01:35:08;;;;;;;9.82;3.15;;;;;;;8.53;57.49;101862.41;5027684;28;20528;-72
2024/03/20 01:37:34;;;;;;;7.32;3.30;;;;;;;8.49;57.41;101853.78;5019468;28;20049;-71
2024/03/20 01:40:00;;;;;;;8.88;3.78;;;;;;;8.39;57.61;101848.75;5033373;28;20029;-72
2024/03/20 01:42:25;;;;;;;12.23;4.07;;;;;;;8.32;57.82;101848.00;5026445;28;20499;-72
2024/03/20 01:45:10;;;;;;;6.28;2.90;;;;;;;8.32;57.86;101845.38;5034266;28;20052;-72
2024/03/20 01:47:35;;;;;;;10.45;2.70;;;;;;;8.25;57.80;101836.81;5026730;28;20924;-72
2024/03/20 01:50:00;;;;;;;6.70;3.42;;;;;;;8.22;57.87;101841.19;5031782;28;20025;-71
2024/03/20 01:52:26;;;;;;;5.90;2.83;;;;;;;8.23;58.04;101853.34;5024890;28;20064;-72
2024/03/20 01:54:52;;;;;;;14.98;4.47;;;;;;;8.24;58.33;101849.84;5014694;28;20072;-72
2024/03/20 01:57:17;;;;;;;7.43;2.95;;;;;;;8.37;57.91;101851.38;5026772;28;20049;-73
2024/03/20 01:59:43;;;;;;;6.13;2.15;;;;;;;8.46;57.79;101851.22;5029097;28;20177;-72
2024/03/20 02:02:08;;;;;;;5.53;2.75;;;;;;;8.48;57.71;101852.06;5035938;28;20036;-72
2024/03/20 02:04:34;;;;;;;8.68;2.80;;;;;;;8.42;57.67;101854.75;5029878;28;20044;-72
2024/03/20 02:07:00;;;;;;;10.25;3.20;;;;;;;8.37;57.49;101851.38;5033807;28;20037;-72
2024/03/20 02:09:25;;;;;;;5.80;3.40;;;;;;;8.25;57.57;101847.22;5039157;28;20035;-73
2024/03/20 02:11:51;;;;;;;6.15;3.00;;;;;;;8.18;57.66;101849.91;5042374;28;20075;-72
2024/03/20 02:14:16;;;;;;;6.05;3.22;;;;;;;8.26;57.68;101855.88;5038704;28;20048;-73
2024/03/20 02:16:42;;;;;;;7.25;2.47;;;;;;;8.24;57.99;101850.69;5036578;28;20064;-73
2024/03/20 02:19:09;;;;;;;5.53;3.17;;;;;;;8.26;57.42;101848.94;5035199;28;20044;-72
2024/03/20 02:21:35;;;;;;;4.20;2.08;;;;;;;8.25;57.67;101852.44;5026318;28;20157;-69
2024/03/20 02:24:08;;;;;;;11.80;3.38;;;;;;;8.32;57.76;101859.25;5022517;28;20040;-69
2024/03/20 02:26:33;;;;;;;10.32;3.65;;;;;;;8.30;57.71;101855.81;5028211;28;20038;-70
2024/03/20 02:29:01;;;;;;;5.82;2.85;;;;;;;8.21;57.65;101855.09;5035828;28;20546;-70
2024/03/20 02:31:31;;;;;;;8.30;3.40;;;;;;;8.26;57.80;101861.09;5030600;28;20213;-75
2024/03/20 02:33:57;;;;;;;7.18;2.95;;;;;;;8.21;57.69;101863.78;5039192;28;20040;-73
2024/03/20 02:36:22;;;;;;;7.18;2.92;;;;;;;8.20;57.74;101861.19;5031537;28;20088;-74
2024/03/20 02:38:50;;;;;;;11.57;2.80;;;;;;;8.26;57.86;101854.13;5052551;27;20055;-75
2024/03/20 02:41:19;;;;;;;7.05;3.67;;;;;;;8.25;57.66;101856.75;5039349;28;20033;-74
2024/03/20 02:43:44;;;;;;;7.80;3.53;;;;;;;8.28;57.52;101857.59;5032483;28;20045;-73
2024/03/20 02:46:10;;;;;;;6.32;3.25;;;;;;;8.29;57.47;101858.44;5036975;28;20104;-73
2024/03/20 02:48:36;;;;;;;6.05;3.20;;;;;;;8.23;57.52;101854.19;5010260;28;20044;-74
2024/03/20 02:51:03;;;;;;;8.75;4.22;;;;;;;8.26;57.51;101858.50;5040311;28;20052;-74
2024/03/20 02:53:31;;;;;;;8.90;3.35;;;;;;;8.28;57.57;101861.94;5033614;28;20049;-74
2024/03/20 02:55:57;;;;;;;8.77;2.80;;;;;;;8.26;57.65;101855.88;5039826;28;20055;-74
2024/03/20 02:58:22;;;;;;;6.40;3.20;;;;;;;8.19;57.67;101855.13;5028681;28;20045;-74
2024/03/20 03:00:48;;;;;;;9.75;4.30;;;;;;;8.11;57.64;101855.25;5026809;28;21924;-75
2024/03/20 03:03:13;;;;;;;7.90;4.32;;;;;;;8.03;57.72;101862.28;5022484;28;20043;-70
2024/03/20 03:05:39;;;;;;;14.95;4.55;;;;;;;8.03;58.08;101867.50;5032523;28;20577;-72
2024/03/20 03:08:07;;;;;;;11.18;4.82;;;;;;;8.10;57.86;101863.91;5027610;28;20544;-72
2024/03/20 03:10:35;;;;;;;10.98;3.70;;;;;;;8.07;57.92;101856.16;5027393;28;20047;-74
2024/03/20 03:13:00;;;;;;;9.45;4.65;;;;;;;8.12;57.86;101859.53;5026518;28;20518;-72
2024/03/20 03:15:28;;;;;;;6.47;3.85;;;;;;;8.12;57.80;101851.75;5026026;28;20033;-73
2024/03/20 03:17:57;;;;;;;7.57;3.95;;;;;;;8.22;57.52;101852.47;5033716;28;20044;-72
2024/03/20 03:20:26;;;;;;;12.43;5.47;;;;;;;8.15;57.44;101854.28;5033271;28;20118;-73
2024/03/20 03:22:51;;;;;;;6.25;3.92;;;;;;;8.07;57.69;101856.16;5046281;28;20044;-73
2024/03/20 03:25:19;;;;;;;5.93;3.50;;;;;;;8.08;57.58;101855.25;5033210;28;20032;-72
2024/03/20 03:27:45;;;;;;;7.35;3.42;;;;;;;8.06;57.62;101856.16;5031334;28;20040;-71
2024/03/20 03:30:11;;;;;;;8.77;4.10;;;;;;;7.99;57.75;101850.19;5032264;28;20029;-72
2024/03/20 03:32:44;;;;;;;11.52;4.20;;;;;;;7.90;57.88;101855.50;5024880;28;20036;-72
2024/03/20 03:35:10;;;;;;;8.40;4.45;;;;;;;7.81;57.92;101847.84;5032976;28;20033;-72
2024/03/20 03:37:38;;;;;;;8.27;4.40;;;;;;;7.75;58.02;101840.94;5024741;28;20564;-72
2024/03/20 03:40:08;;;;;;;8.93;4.88;;;;;;;7.67;57.86;101843.66;5031498;28;20029;-72
2024/03/20 03:42:39;;;;;;;7.43;5.10;;;;;;;7.60;58.04;101847.22;5018646;27;20045;-72
2024/03/20 03:45:05;;;;;;;9.90;5.13;;;;;;;7.54;58.27;101847.25;5040054;28;20047;-72
2024/03/20 03:47:40;;;;;;;7.72;4.07;;;;;;;7.51;58.09;101848.16;5021706;28;20045;-74
2024/03/20 03:50:07;;;;;;;14.50;5.38;;;;;;;7.42;58.14;101849.97;5034790;28;20033;-72
2024/03/20 03:52:32;;;;;;;10.60;5.15;;;;;;;7.37;58.63;101849.19;5011259;28;20426;-73
2024/03/20 03:55:00;;;;;;;10.35;6.03;;;;;;;7.33;58.38;101854.44;5048207;28;20056;-73
2024/03/20 03:57:28;;;;;;;10.95;4.70;;;;;;;7.38;58.27;101845.69;5015187;28;21484;-74
2024/03/20 03:59:54;;;;;;;11.68;4.25;;;;;;;7.44;57.97;101851.69;5030103;28;20039;-73
2024/03/20 04:02:22;;;;;;;9.75;4.88;;;;;;;7.32;57.93;101847.47;5031009;28;20040;-72
2024/03/20 04:04:50;;;;;;;6.13;3.70;;;;;;;7.30;57.80;101854.44;5025835;28;20044;-73
2024/03/20 04:07:15;;;;;;;10.68;4.28;;;;;;;7.18;58.02;101851.97;5029084;28;20072;-73
2024/03/20 04:09:41;;;;;;;9.48;4.15;;;;;;;7.16;58.27;101850.28;5024576;28;20158;-73
2024/03/20 04:12:09;;;;;;;8.90;4.15;;;;;;;7.18;57.97;101854.59;5028535;28;20167;-73
2024/03/20 04:14:36;;;;;;;6.38;4.03;;;;;;;7.10;58.14;101851.19;5021680;28;20537;-72
2024/03/20 04:17:07;;;;;;;6.57;3.85;;;;;;;7.06;58.37;101860.75;5019175;28;20433;-73
2024/03/20 04:19:37;;;;;;;6.05;3.75;;;;;;;7.02;58.27;101850.38;5012345;28;20056;-72
2024/03/20 04:22:03;;;;;;;4.78;3.67;;;;;;;6.97;58.31;101859.97;5028341;28;20056;-72
2024/03/20 04:24:31;;;;;;;5.03;3.42;;;;;;;6.96;58.08;101851.31;5021494;28;20124;-70
2024/03/20 04:26:59;;;;;;;6.80;4.10;;;;;;;6.96;58.28;101858.28;5030628;28;20125;-69
2024/03/20 04:29:25;;;;;;;7.82;4.25;;;;;;;6.87;58.22;101849.66;5030092;28;20033;-72
2024/03/20 04:31:51;;;;;;;6.25;3.60;;;;;;;6.83;58.63;101849.72;5029828;28;20028;-72
2024/03/20 04:34:16;;;;;;;5.40;3.83;;;;;;;6.86;58.65;101852.28;5028497;28;20067;-74
2024/03/20 04:36:42;;;;;;;8.18;4.18;;;;;;;6.90;58.63;101860.03;5023916;28;20071;-73
2024/03/20 04:39:10;;;;;;;5.90;4.22;;;;;;;6.96;58.60;101861.72;5027879;28;20099;-73
2024/03/20 04:41:38;;;;;;;8.73;4.65;;;;;;;6.92;58.55;101857.41;5027351;28;20124;-73
2024/03/20 04:44:06;;;;;;;6.03;4.43;;;;;;;6.85;58.62;101856.63;5034408;28;20036;-73
2024/03/20 04:46:33;;;;;;;8.85;4.18;;;;;;;6.84;58.78;101856.63;5026752;28;20040;-73
2024/03/20 04:49:00;;;;;;;9.13;4.72;;;;;;;6.87;58.59;101854.88;5027427;28;20047;-71
2024/03/20 04:51:33;;;;;;;8.10;5.00;;;;;;;6.95;58.24;101861.72;5023381;28;20044;-73
2024/03/20 04:53:58;;;;;;;9.77;4.13;;;;;;;6.81;58.52;101861.84;5035975;28;20037;-73
2024/03/20 04:56:24;;;;;;;9.20;4.38;;;;;;;6.78;58.26;101861.88;5032545;28;20451;-73
2024/03/20 04:58:49;;;;;;;6.93;4.63;;;;;;;6.75;58.41;101857.56;5023598;28;20074;-73
2024/03/20 05:01:17;;;;;;;6.95;3.90;;;;;;;6.72;58.60;101855.00;5027564;28;20123;-71
2024/03/20 05:03:45;;;;;;;7.20;3.97;;;;;;;6.69;58.09;101855.88;5023024;28;20068;-71
2024/03/20 05:06:13;;;;;;;8.48;4.72;;;;;;;6.65;58.70;101858.53;5026329;28;20062;-71
2024/03/20 05:08:44;;;;;;;8.27;5.13;;;;;;;6.55;58.56;101856.84;5028739;28;20433;-72
2024/03/20 05:11:09;;;;;;;7.20;4.18;;;;;;;6.52;58.78;101856.88;5029250;28;20060;-71
2024/03/20 05:13:35;;;;;;;5.75;4.40;;;;;;;6.46;58.74;101857.78;5022843;28;20089;-71
2024/03/20 05:16:27;;;;;;;6.95;4.10;;;;;;;6.46;58.51;101861.25;5030998;28;20043;-71
2024/03/20 05:18:53;;;;;;;5.68;3.67;;;;;;;6.39;58.66;101856.97;5026728;28;20072;-71
2024/03/20 05:21:19;;;;;;;7.20;3.72;;;;;;;6.39;58.41;101862.16;5029600;28;20162;-71
2024/03/20 05:23:45;;;;;;;9.02;5.10;;;;;;;6.29;58.63;101863.09;5025098;28;20419;-73
2024/03/20 05:26:11;;;;;;;6.82;4.10;;;;;;;6.18;58.62;101864.88;5029531;28;20029;-75
2024/03/20 05:28:36;;;;;;;7.45;3.70;;;;;;;6.17;58.71;101863.13;5023507;28;20159;-76
2024/03/20 05:31:05;;;;;;;11.07;5.18;;;;;;;6.19;58.81;101862.25;5030065;28;20550;-73
2024/03/20 05:33:30;;;;;;;7.88;4.03;;;;;;;6.20;58.65;101868.31;5027164;28;20514;-74
2024/03/20 05:35:56;;;;;;;9.48;4.57;;;;;;;6.15;58.84;101867.47;5021264;28;20497;-75
2024/03/20 05:38:21;;;;;;;5.47;3.53;;;;;;;6.25;58.76;101869.16;5030988;28;20051;-72
2024/03/20 05:40:47;;;;;;;5.55;3.33;;;;;;;6.30;58.68;101872.59;5022459;28;20024;-73
2024/03/20 05:43:13;;;;;;;9.35;5.85;;;;;;;6.26;58.95;101873.44;5031805;28;20045;-73
2024/03/20 05:45:39;;;;;;;9.77;5.57;;;;;;;6.33;59.30;101877.78;5025098;28;20059;-73
2024/03/20 05:48:05;;;;;;;11.77;5.70;;;;;;;6.43;59.20;101876.84;5028820;28;20036;-73
2024/03/20 05:50:30;;;;;;;8.77;4.97;;;;;;;6.46;59.17;101883.75;5028501;28;20036;-73
2024/03/20 05:52:56;;;;;;;12.75;4.78;;;;;;;6.40;59.00;101884.66;5022197;28;20719;-72
2024/03/20 05:55:22;;;;;;;12.70;5.18;;;;;;;6.36;59.26;101882.09;5030695;28;20178;-72
2024/03/20 05:57:50;;;;;;;11.27;6.53;;;;;;;6.41;59.53;101883.78;5003351;28;20132;-72
2024/03/20 06:00:20;;;;;;;13.73;6.80;;;;;;;6.46;59.44;101878.56;5031857;28;20041;-74
2024/03/20 06:02:47;;;;;;;11.68;5.75;;;;;;;6.54;59.75;101878.53;5001619;28;20032;-73
2024/03/20 06:05:13;;;;;;;15.60;6.82;;;;;;;6.59;59.51;101879.34;5031672;28;20040;-73
2024/03/20 06:07:39;;;;;;;11.52;6.97;;;;;;;6.67;59.75;101878.41;5017832;28;20051;-73
2024/03/20 06:10:08;;;;;;;11.32;6.50;;;;;;;6.77;59.90;101878.34;5030297;28;20029;-72
2024/03/20 06:12:35;;;;;;;13.23;5.57;;;;;;;6.83;59.67;101879.16;5024965;28;20052;-73
2024/03/20 06:15:01;;;;;;;9.32;5.80;;;;;;;6.78;59.58;101880.94;5033172;28;20110;-72
2024/03/20 06:17:31;;;;;;;11.93;6.10;;;;;;;7.04;59.74;101877.22;5028380;28;20094;-72
2024/03/20 06:19:56;;;;;;;11.23;7.15;;;;;;;7.16;59.24;101878.88;5024149;28;21711;-73
2024/03/20 06:22:24;;;;;;;16.23;7.68;;;;;;;7.30;59.56;101883.03;5031489;28;20097;-71
2024/03/20 06:24:50;;;;;;;14.32;7.18;;;;;;;7.47;59.41;101882.88;5024190;28;21046;-73
2024/03/20 06:27:16;;;;;;;15.93;7.22;;;;;;;7.43;58.55;101894.19;5035944;28;20052;-72
2024/03/20 06:29:42;;;;;;;10.30;6.22;;;;;;;7.66;58.76;101891.34;5020540;28;20569;-72
2024/03/20 06:32:07;;;;;;;11.75;6.95;;;;;;;7.85;58.89;101885.97;5028557;28;20031;-71
2024/03/20 06:34:33;;;;;;;11.15;6.65;;;;;;;8.00;58.73;101888.34;5024830;28;20546;-71
2024/03/20 06:36:58;;;;;;;12.20;7.05;;;;;;;8.13;58.33;101891.66;5023744;28;20058;-74
2024/03/20 06:39:24;;;;;;;13.57;6.90;;;;;;;8.14;58.22;101891.63;5028526;28;20052;-74
2024/03/20 06:41:49;;;;;;;14.63;8.38;;;;;;;8.16;58.10;101902.03;5030626;28;20035;-71
2024/03/20 06:44:17;;;;;;;15.70;8.00;;;;;;;8.31;58.26;101901.81;5027394;28;20127;-73
2024/03/20 06:46:44;;;;;;;13.63;8.57;;;;;;;8.29;57.86;101900.09;5025082;28;20036;-70
2024/03/20 06:49:11;;;;;;;19.77;10.18;;;;;;;8.47;57.14;101912.91;5030427;28;20043;-71
2024/03/20 06:51:38;;;;;;;17.92;9.55;;;;;;;8.26;56.71;101895.81;5016621;28;20487;-71
2024/03/20 06:54:11;;;;;;;19.35;8.27;;;;;;;8.47;57.13;101906.81;5035061;28;20186;-71
2024/03/20 06:56:37;;;;;;;17.25;8.95;;;;;;;8.28;56.71;101908.81;5030664;28;20305;-72
2024/03/20 06:59:02;;;;;;;16.80;8.43;;;;;;;8.91;57.15;101903.53;5059291;27;20063;-69
2024/03/20 07:01:28;;;;;;;17.10;8.15;;;;;;;9.18;54.84;101906.56;5034358;28;20056;-69
2024/03/20 07:03:54;;;;;;;17.08;8.10;;;;;;;9.66;55.83;101898.72;5027461;28;20586;-71
2024/03/20 07:06:19;;;;;;;11.20;8.07;;;;;;;9.69;53.88;101905.63;5030667;28;20089;-72
2024/03/20 07:08:45;;;;;;;17.67;8.38;;;;;;;9.90;53.80;101904.34;5024161;28;20043;-72
2024/03/20 07:11:11;;;;;;;11.50;6.95;;;;;;;10.11;53.73;101903.03;5031498;28;20589;-72
2024/03/20 07:13:36;;;;;;;17.88;6.97;;;;;;;10.34;52.94;101905.16;5029448;28;20075;-72
2024/03/20 07:16:02;;;;;;;11.63;7.22;;;;;;;10.30;51.94;101908.72;5035101;28;20041;-72
2024/03/20 07:18:28;;;;;;;14.48;6.70;;;;;;;10.58;51.88;101907.19;5033251;28;20937;-73
2024/03/20 07:20:53;;;;;;;13.85;7.63;;;;;;;10.82;50.72;101905.78;5011630;28;20037;-72
2024/03/20 07:23:19;;;;;;;15.57;7.18;;;;;;;10.93;50.26;101912.47;5029024;28;20119;-72
2024/03/20 07:25:44;;;;;;;11.60;7.00;;;;;;;11.12;49.51;101923.34;5022931;28;20502;-73
2024/03/20 07:28:12;;;;;;;14.07;7.05;;;;;;;10.79;50.56;101918.03;5034012;28;20032;-72
2024/03/20 07:30:39;;;;;;;18.15;6.80;;;;;;;10.88;50.15;101917.81;5032615;28;20472;-74
2024/03/20 07:33:04;;;;;;;23.05;7.57;;;;;;;10.98;49.20;101918.47;5019662;28;21095;-72
2024/03/20 07:35:44;;;;;;;13.65;6.38;;;;;;;11.14;49.23;101914.56;5034022;28;20044;-72
2024/03/20 07:38:10;;;;;;;9.38;5.28;;;;;;;10.96;49.28;101910.66;5029303;28;20081;-73
2024/03/20 07:40:35;;;;;;;10.55;5.55;;;;;;;10.81;49.88;101908.38;5038655;28;20040;-74
2024/03/20 07:43:01;;;;;;;14.10;5.78;;;;;;;10.66;49.98;101901.78;5022014;28;20036;-73
2024/03/20 07:45:27;;;;;;;10.10;6.30;;;;;;;10.70;50.10;101907.78;5034746;28;20906;-73
2024/03/20 07:47:53;;;;;;;11.55;5.80;;;;;;;10.67;50.71;101910.50;5024208;28;20109;-71
2024/03/20 07:50:18;;;;;;;13.90;6.70;;;;;;;10.92;51.81;101918.63;5033374;28;20039;-71
2024/03/20 07:52:44;;;;;;;10.75;5.90;;;;;;;10.92;49.52;101916.84;5026106;28;20048;-73
2024/03/20 07:55:09;;;;;;;8.98;5.65;;;;;;;11.05;50.21;101926.13;5028270;28;20044;-74
2024/03/20 07:57:35;;;;;;;8.68;5.10;;;;;;;11.04;50.11;101927.03;5031073;28;20066;-74
2024/03/20 08:00:05;;;;;;;12.63;6.13;;;;;;;10.79;50.65;101928.47;5023859;28;20056;-73
2024/03/20 08:02:36;;;;;;;10.25;5.97;;;;;;;10.88;50.44;101932.66;5030513;28;20620;-74
2024/03/20 08:05:02;;;;;;;11.52;6.13;;;;;;;10.92;49.38;101934.31;5025689;28;20482;-73
2024/03/20 08:07:28;;;;;;;10.63;5.65;;;;;;;10.86;49.99;101934.47;5028513;28;20033;-74
2024/03/20 08:09:54;;;;;;;10.40;5.22;;;;;;;11.05;50.81;101931.34;5025525;28;20040;-74
2024/03/20 08:12:19;;;;;;;10.98;5.53;;;;;;;11.08;49.44;101929.56;5028638;28;20045;-74
2024/03/20 08:14:45;;;;;;;8.65;5.25;;;;;;;10.98;51.02;101924.56;5026578;28;20059;-74
2024/03/20 08:17:10;;;;;;;8.88;5.75;;;;;;;11.18;49.70;101936.28;5020355;28;20422;-74
2024/03/20 08:19:36;;;;;;;10.68;5.43;;;;;;;11.13;50.15;101932.91;5032340;28;20051;-74
2024/03/20 08:22:02;;;;;;;9.98;5.25;;;;;;;11.34;49.78;101940.22;5025568;28;20428;-74
2024/03/20 08:24:27;;;;;;;12.75;5.30;;;;;;;11.32;48.56;101939.41;5037064;28;20111;-74
2024/03/20 08:26:53;;;;;;;9.82;5.03;;;;;;;11.18;49.63;101942.38;5025700;28;20025;-72
2024/03/20 08:29:18;;;;;;;14.60;5.68;;;;;;;11.29;49.22;101933.41;5033024;28;20411;-74
2024/03/20 08:31:44;;;;;;;10.50;5.68;;;;;;;11.28;49.59;101947.38;5029260;28;20450;-73
2024/03/20 08:34:09;;;;;;;8.52;4.53;;;;;;;11.29;49.26;101944.72;5027130;28;20037;-73
2024/03/20 08:36:35;;;;;;;11.02;5.25;;;;;;;11.16;49.71;101940.69;5033037;28;20187;-74
2024/03/20 08:39:00;;;;;;;13.20;5.28;;;;;;;11.16;49.82;101948.56;5022505;28;20483;-73
2024/03/20 08:41:26;;;;;;;10.65;5.57;;;;;;;11.41;49.46;101948.78;5017425;28;20055;-74
2024/03/20 08:43:52;;;;;;;13.68;5.03;;;;;;;11.61;48.66;101950.84;5007618;28;20037;-74
2024/03/20 08:46:19;;;;;;;13.95;5.82;;;;;;;11.75;48.32;101953.09;5031691;28;20040;-74
2024/03/20 08:48:45;;;;;;;9.68;5.15;;;;;;;11.85;48.00;101950.19;5023926;28;20900;-74
2024/03/20 08:51:10;;;;;;;10.75;4.45;;;;;;;11.91;47.51;101954.44;5031851;28;20039;-74
2024/03/20 08:53:36;;;;;;;12.52;4.43;;;;;;;11.92;48.18;101950.88;5034239;28;20041;-74
2024/03/20 08:56:02;;;;;;;14.00;5.90;;;;;;;11.73;48.11;101961.00;5024171;28;20103;-73
2024/03/20 08:58:28;;;;;;;9.95;4.50;;;;;;;11.84;48.08;101956.34;5030822;28;20045;-74
2024/03/20 09:00:54;;;;;;;10.65;4.45;;;;;;;11.84;48.67;101958.09;5026223;28;20410;-74
2024/03/20 09:03:20;;;;;;;13.90;5.55;;;;;;;12.36;47.72;101955.75;5030667;28;20048;-74
2024/03/20 09:05:47;;;;;;;18.38;6.18;;;;;;;12.27;47.27;101960.34;5025152;28;20036;-74
2024/03/20 09:08:12;;;;;;;9.40;4.10;;;;;;;12.43;47.35;101957.25;5029501;28;20060;-73
2024/03/20 09:10:38;;;;;;;9.85;4.47;;;;;;;12.08;48.00;101965.25;5026823;28;21761;-73
2024/03/20 09:13:03;;;;;;;9.43;4.20;;;;;;;12.13;46.70;101959.88;5027818;28;20048;-73
2024/03/20 09:15:29;;;;;;;7.45;3.75;;;;;;;12.17;46.59;101956.25;5028436;28;20044;-74
2024/03/20 09:17:55;;;;;;;12.68;4.32;;;;;;;12.27;46.42;101962.97;5025597;28;20041;-73
2024/03/20 09:20:20;;;;;;;8.50;4.60;;;;;;;12.22;47.44;101954.38;5032267;28;20088;-74
2024/03/20 09:22:46;;;;;;;14.23;4.93;;;;;;;11.98;47.39;101944.63;5027641;28;20048;-75
2024/03/20 09:25:16;;;;;;;10.02;4.18;;;;;;;12.14;47.52;101951.13;5029638;28;20028;-73
2024/03/20 09:27:41;;;;;;;13.98;4.70;;;;;;;12.19;47.63;101943.97;5032863;28;20558;-73
2024/03/20 09:30:08;;;;;;;11.35;4.15;;;;;;;12.27;47.28;101952.47;5024185;28;20047;-74
2024/03/20 09:32:35;;;;;;;6.35;4.10;;;;;;;12.19;47.87;101949.22;5027884;28;20802;-73
2024/03/20 09:35:00;;;;;;;11.27;4.20;;;;;;;12.11;46.78;101946.00;5024029;28;20170;-74
2024/03/20 09:37:30;;;;;;;16.85;4.75;;;;;;;12.29;47.95;101955.91;5031886;28;20524;-74
2024/03/20 09:39:59;;;;;;;6.10;3.70;;;;;;;12.33;47.33;101954.03;5025489;28;20060;-75
2024/03/20 09:42:26;;;;;;;10.25;4.07;;;;;;;12.27;47.97;101957.72;5008882;28;20488;-75
2024/03/20 09:44:53;;;;;;;10.27;3.53;;;;;;;11.59;48.19;101952.66;5046241;28;20033;-74
2024/03/20 09:47:20;;;;;;;9.23;3.58;;;;;;;11.94;47.00;101953.47;5028677;28;22979;-73
2024/03/20 09:49:47;;;;;;;15.02;3.45;;;;;;;12.48;46.20;101942.25;5032041;28;21139;-74
2024/03/20 09:52:13;;;;;;;9.13;3.38;;;;;;;12.17;46.40;101951.03;5023071;28;20021;-73
2024/03/20 09:54:40;;;;;;;8.07;3.47;;;;;;;12.23;46.52;101945.59;5030337;28;20029;-73
2024/03/20 09:57:06;;;;;;;10.68;3.38;;;;;;;13.22;45.75;101945.13;5020236;28;20041;-73
2024/03/20 09:59:32;;;;;;;9.48;3.10;;;;;;;12.68;44.67;101946.84;5021032;28;20156;-73
2024/03/20 10:01:57;;;;;;;15.43;3.45;;;;;;;13.18;43.93;101946.13;5020881;28;20501;-74
2024/03/20 10:04:27;;;;;;;10.23;2.92;;;;;;;12.20;46.13;101945.72;5023910;28;20529;-75
2024/03/20 10:06:53;;;;;;;11.65;3.38;;;;;;;12.98;45.10;101946.78;5020598;28;20444;-73
2024/03/20 10:09:20;;;;;;;8.63;3.50;;;;;;;12.73;44.58;101941.50;5020043;28;20075;-75
2024/03/20 10:11:47;;;;;;;8.05;3.10;;;;;;;12.63;45.79;101940.91;5011132;28;20120;-75
2024/03/20 10:14:13;;;;;;;6.88;2.97;;;;;;;13.44;44.22;101937.34;5025851;28;20048;-73
2024/03/20 10:16:39;;;;;;;5.00;2.78;;;;;;;13.38;45.71;101937.56;5025610;28;20037;-72
2024/03/20 10:19:05;;;;;;;12.02;3.53;;;;;;;14.42;43.30;101932.91;5013252;28;20044;-74
2024/03/20 10:21:32;;;;;;;7.15;2.72;;;;;;;14.33;43.50;101932.31;5028778;28;20048;-74
2024/03/20 10:23:59;;;;;;;11.48;3.22;;;;;;;13.07;44.35;101934.25;5022544;28;20156;-74
2024/03/20 10:26:25;;;;;;;9.80;2.65;;;;;;;14.02;43.14;101926.53;5026882;28;20767;-75
2024/03/20 10:28:52;;;;;;;4.50;2.58;;;;;;;14.63;42.61;101925.91;5024895;28;20645;-76
2024/03/20 10:31:21;;;;;;;7.85;2.92;;;;;;;14.48;41.85;101922.16;5027109;28;20036;-75
2024/03/20 10:33:49;;;;;;;9.95;2.88;;;;;;;14.56;40.23;101920.03;5030883;28;22239;-74
2024/03/20 10:36:17;;;;;;;5.47;2.50;;;;;;;14.87;41.50;101917.00;5004921;28;20033;-75
2024/03/20 10:38:44;;;;;;;6.15;3.17;;;;;;;15.16;41.19;101907.03;5010700;28;20036;-76
2024/03/20 10:41:13;;;;;;;8.25;2.42;;;;;;;14.89;40.47;101912.53;5010991;28;20050;-73
2024/03/20 10:43:39;;;;;;;6.85;3.13;;;;;;;15.08;40.38;101917.03;5028022;28;20055;-70
2024/03/20 10:46:11;;;;;;;7.55;1.55;;;;;;;14.48;41.63;101928.25;5039440;28;20551;-70
2024/03/20 10:48:37;;;;;;;8.98;2.00;;;;;;;14.90;40.75;101926.56;5027289;28;20766;-71
2024/03/20 10:51:03;;;;;;;3.65;2.55;;;;;;;13.67;42.83;101923.41;5022798;28;20040;-72
2024/03/20 10:53:30;;;;;;;9.27;3.15;;;;;;;14.07;42.48;101911.44;5013009;28;20291;-71
2024/03/20 10:55:56;;;;;;;4.47;2.53;;;;;;;14.09;42.73;101922.75;5026190;28;20036;-73
2024/03/20 10:58:24;;;;;;;6.20;2.50;;;;;;;13.13;44.50;101924.44;5029340;28;20044;-73
2024/03/20 11:00:54;;;;;;;4.97;2.45;;;;;;;13.22;44.98;101929.38;5029484;28;20774;-72
2024/03/20 11:03:42;;;;;;;5.35;2.20;;;;;;;13.84;44.41;101926.28;5020075;28;20682;-72
2024/03/20 11:06:31;;;;;;;8.05;2.13;;;;;;;14.16;44.49;101918.94;5025308;28;20134;-74
2024/03/20 11:09:25;;;;;;;10.07;2.13;;;;;;;14.15;42.88;101925.16;5011569;28;20092;-74
2024/03/20 11:11:52;;;;;;;8.20;1.83;;;;;;;13.88;42.88;101917.38;5029021;28;20064;-75
2024/03/20 11:14:29;;;;;;;7.95;2.97;;;;;;;13.96;42.60;101921.50;5024462;28;21497;-74
2024/03/20 11:17:02;;;;;;;9.38;2.55;;;;;;;14.21;41.78;101918.78;5024590;28;20093;-75
2024/03/20 11:19:28;;;;;;;6.68;2.67;;;;;;;14.08;43.46;101918.41;5026535;28;20029;-74
2024/03/20 11:21:55;;;;;;;5.00;2.00;;;;;;;13.66;44.21;101924.34;5013512;28;20328;-74
2024/03/20 11:24:22;;;;;;;5.93;2.42;;;;;;;13.80;43.72;101914.19;5030715;28;20170;-75